Stations météo

réclame
Mon MeteoGroup
Baza, Espagne (8424): Température de l'air & dewpoint: 15.05.2018 01:00:00 - 21.05.2018 01:00:00 (CEST)Baza, Espagne (8424): Vitesse du vent & gusts: 15.05.2018 01:00:00 - 21.05.2018 01:00:00 (CEST)Baza, Espagne (8424): Direction du vent: 15.05.2018 01:00:00 - 21.05.2018 01:00:00 (CEST)Baza, Espagne (8424): visibility: 15.05.2018 01:00:00 - 21.05.2018 01:00:00 (CEST)Baza, Espagne (8424): Ensoleillement: 15.05.2018 01:00:00 - 21.05.2018 01:00:00 (CEST)Baza, Espagne (8424): Quantités de précipitations: 15.05.2018 01:00:00 - 21.05.2018 01:00:00 (CEST)
Date & Time tt [°C] td [°C] ff [km/h] ff [knt] fx [km/h] fx [knt] dd vv [km] sd [min] rr [mm]
21.05.2018 01:00:00 - - - - - - - - - -
21.05.2018 00:00:00 12,4 10,3 4 2 6 3 E 20 0 0,0
20.05.2018 23:00:00 12,9 10,0 3 2 8 4 N 20 0 0,0
20.05.2018 22:00:00 13,3 10,0 5 3 18 10 WNW 20 0 0,0
20.05.2018 21:00:00 13,3 9,9 13 7 24 13 N 20 0 0,0
20.05.2018 20:00:00 14,4 10,0 16 9 29 15 N 19 0 -
20.05.2018 19:00:00 17,9 7,0 14 7 27 15 ESE 20 0 0,0
20.05.2018 18:00:00 18,5 7,3 15 8 30 16 ESE 20 18 0,0
20.05.2018 17:00:00 18,2 10,0 17 9 29 16 SE 20 17 1,0
20.05.2018 16:00:00 19,8 7,1 16 8 31 17 E 17 0 0,2
20.05.2018 15:00:00 20,3 9,6 10 5 22 12 ENE 6 41 0,0
20.05.2018 14:00:00 22,8 5,3 6 3 16 9 ENE 20 47 -
20.05.2018 13:00:00 19,7 7,1 9 5 18 10 N 20 57 0,0
20.05.2018 12:00:00 19,0 8,7 5 3 14 7 WNW 17 60 0,0
20.05.2018 11:00:00 15,8 8,0 3 2 10 5 S 20 60 0,0
20.05.2018 10:00:00 12,6 8,7 3 1 6 3 NNE 20 54 0,0
20.05.2018 09:00:00 8,8 7,6 2 1 6 3 SE 19 0 0,0
20.05.2018 08:00:00 6,6 5,8 5 3 9 5 ESE 14 0 -
20.05.2018 07:00:00 6,5 5,5 7 4 9 5 SSE 11 0 0,0
20.05.2018 06:00:00 7,2 5,9 5 3 9 5 SE 12 0 0,0
20.05.2018 05:00:00 8,4 6,8 7 4 9 5 S 15 0 0,0
20.05.2018 04:00:00 9,4 7,3 4 2 9 5 E 10 0 0,0
20.05.2018 03:00:00 10,5 7,1 7 4 11 6 ESE 17 0 0,0
20.05.2018 02:00:00 11,9 8,5 7 4 15 8 S 16 0 -
20.05.2018 01:00:00 13,1 9,3 9 5 17 9 S 17 0 0,0
20.05.2018 00:00:00 13,6 9,4 9 5 17 9 SSE 17 0 0,0
19.05.2018 23:00:00 14,5 9,0 11 6 19 10 S 19 0 0,0
19.05.2018 22:00:00 15,5 8,7 9 5 25 13 S 18 0 0,0
19.05.2018 21:00:00 17,4 6,8 17 9 35 19 SE 20 38 0,0
19.05.2018 20:00:00 20,3 8,0 22 12 33 18 SE 20 44 -
19.05.2018 19:00:00 22,0 7,4 18 10 33 18 SE 20 36 0,0
19.05.2018 18:00:00 24,2 5,0 13 7 27 14 ESE 20 32 0,0
19.05.2018 17:00:00 24,4 3,6 12 7 29 15 ESE 20 53 0,0
19.05.2018 16:00:00 23,7 3,0 11 6 29 15 E 20 45 0,0
19.05.2018 15:00:00 22,4 5,8 8 4 26 14 ESE 20 39 0,0
19.05.2018 14:00:00 21,7 3,8 11 6 24 13 E 20 30 -
19.05.2018 13:00:00 21,0 5,3 8 4 19 10 NNW 19 53 0,0
19.05.2018 12:00:00 18,6 8,3 5 3 12 7 WNW 20 56 0,0
19.05.2018 11:00:00 15,6 9,0 4 2 8 4 NW 17 27 0,0
19.05.2018 10:00:00 12,6 7,7 2 1 7 4 W 13 53 0,0
19.05.2018 09:00:00 9,7 7,1 2 1 4 2 ESE 18 0 0,0
19.05.2018 08:00:00 7,5 5,9 4 2 6 3 SE 16 0 -
19.05.2018 07:00:00 7,4 5,3 6 3 7 4 SSE 16 0 0,0
19.05.2018 06:00:00 7,7 5,1 6 3 7 4 S 16 0 0,0
19.05.2018 05:00:00 8,3 5,6 4 2 9 5 SW 18 0 0,0
19.05.2018 04:00:00 8,6 5,3 4 2 8 4 NE 18 0 0,0
19.05.2018 03:00:00 9,2 5,6 5 3 9 5 ESE 20 0 0,0
19.05.2018 02:00:00 10,2 5,6 7 4 10 6 SSE 20 0 -
19.05.2018 01:00:00 11,8 5,6 8 4 14 8 S 18 0 0,0
19.05.2018 00:00:00 13,2 5,6 10 5 16 8 SSE 20 0 0,0
18.05.2018 23:00:00 14,9 5,6 8 5 14 7 S 20 0 0,0
18.05.2018 22:00:00 16,3 5,0 8 4 16 9 S 20 0 0,0
18.05.2018 21:00:00 17,7 4,6 12 7 32 17 ESE 20 20 0,0
18.05.2018 20:00:00 20,4 3,9 19 10 37 20 E 19 60 -
18.05.2018 19:00:00 22,0 3,0 20 11 39 21 E 20 60 0,0
18.05.2018 18:00:00 23,7 4,6 21 12 37 20 ESE 20 59 0,0
18.05.2018 17:00:00 22,9 4,8 18 10 40 22 ESE 16 52 0,0
18.05.2018 16:00:00 23,6 5,0 15 8 39 21 E 20 49 0,0
18.05.2018 15:00:00 22,0 4,5 11 6 31 17 ESE 13 40 0,0
18.05.2018 14:00:00 22,0 6,2 13 7 27 15 E 20 36 -
18.05.2018 13:00:00 19,0 7,1 4 2 17 9 ENE 16 36 0,0
18.05.2018 12:00:00 18,7 6,2 4 2 16 8 NNE 20 60 0,0
18.05.2018 11:00:00 14,9 7,7 6 4 12 6 N 20 60 0,0
18.05.2018 10:00:00 10,8 6,5 6 3 9 5 N 20 51 0,0
18.05.2018 09:00:00 8,4 5,1 3 2 7 4 NNE 19 0 0,0
18.05.2018 08:00:00 5,6 3,8 5 3 10 5 SE 20 0 -
18.05.2018 07:00:00 5,2 3,8 6 4 11 6 S 19 0 0,0
18.05.2018 06:00:00 5,8 3,9 6 4 11 6 SSE 18 0 0,0
18.05.2018 05:00:00 6,4 4,5 7 4 10 6 SSE 13 0 0,0
18.05.2018 04:00:00 7,3 5,0 4 2 11 6 S 19 0 0,0
18.05.2018 03:00:00 8,2 6,5 7 4 11 6 E 16 0 0,0
18.05.2018 02:00:00 9,7 7,7 7 4 11 6 ESE 12 0 -
18.05.2018 01:00:00 11,2 8,4 6 4 14 7 ESE 19 0 0,0
18.05.2018 00:00:00 12,3 9,6 8 5 19 10 SSE 18 0 0,0
17.05.2018 23:00:00 13,2 8,7 10 5 21 12 SE 19 0 0,0
17.05.2018 22:00:00 14,7 8,7 13 7 23 12 SE 20 3 0,0
17.05.2018 21:00:00 17,2 7,8 14 8 27 15 SE 20 54 0,0
17.05.2018 20:00:00 19,6 7,0 19 10 34 18 ESE 20 60 -
17.05.2018 19:00:00 21,3 5,1 16 9 34 19 SE 20 54 0,0
17.05.2018 18:00:00 19,6 2,9 14 8 30 16 E 18 16 0,0
17.05.2018 17:00:00 21,8 3,9 13 7 28 15 E 20 25 0,0
17.05.2018 16:00:00 20,6 4,1 13 7 37 20 E 19 11 0,0
17.05.2018 15:00:00 20,4 3,6 16 9 32 17 E 20 22 0,0
17.05.2018 14:00:00 20,6 3,8 12 6 35 19 E 20 38 -
17.05.2018 13:00:00 20,4 3,6 12 6 32 17 E 20 60 0,0
17.05.2018 12:00:00 19,8 3,4 9 5 27 15 ENE 20 60 0,0
17.05.2018 11:00:00 16,2 4,6 7 4 22 12 SSE 20 60 0,0
17.05.2018 10:00:00 13,9 5,3 9 5 18 10 SE 20 50 0,0
17.05.2018 09:00:00 10,2 5,1 6 3 12 7 E 20 0 0,0
17.05.2018 08:00:00 6,2 3,0 6 4 10 5 E 19 0 -
17.05.2018 07:00:00 5,6 2,3 8 4 11 6 ESE 20 0 0,0
17.05.2018 06:00:00 6,1 2,3 9 5 11 6 ESE 20 0 0,0
17.05.2018 05:00:00 6,4 2,3 7 4 13 7 E 20 0 0,0
17.05.2018 04:00:00 6,9 2,1 8 5 11 6 ESE 20 0 0,0
17.05.2018 03:00:00 8,3 2,3 5 3 11 6 SE 20 0 0,0
17.05.2018 02:00:00 8,7 1,9 9 5 11 6 ESE 20 0 -
17.05.2018 01:00:00 10,7 2,5 9 5 18 10 SE 20 0 0,0
17.05.2018 00:00:00 12,3 3,0 13 7 21 12 SE 20 0 0,0
16.05.2018 23:00:00 13,0 2,9 10 5 19 11 SE 20 0 0,0
16.05.2018 22:00:00 14,6 3,0 13 7 29 16 SE 20 7 0,0
16.05.2018 21:00:00 17,2 3,4 21 11 37 20 SE 20 54 0,0
16.05.2018 20:00:00 20,2 3,0 21 11 40 22 SE 20 60 -
16.05.2018 19:00:00 22,7 2,7 16 9 35 19 E 20 60 0,0
16.05.2018 18:00:00 23,6 2,5 13 7 35 19 E 20 60 0,0
16.05.2018 17:00:00 25,1 3,0 16 9 48 26 ESE 20 60 0,0
16.05.2018 16:00:00 24,6 3,2 13 7 62 33 E 20 60 0,0
16.05.2018 15:00:00 24,1 4,5 15 8 36 20 ESE 20 60 0,0
16.05.2018 14:00:00 23,3 6,1 14 8 35 19 ESE 20 58 -
16.05.2018 13:00:00 21,7 5,6 18 10 32 18 SE 20 58 0,0
16.05.2018 12:00:00 20,6 5,5 15 8 27 15 ESE 20 60 0,0
16.05.2018 11:00:00 16,1 7,3 3 2 9 5 NW 20 60 0,0
16.05.2018 10:00:00 12,3 7,0 4 2 8 4 NNW 8 49 0,0
16.05.2018 09:00:00 9,1 6,4 5 3 9 5 NNW 20 0 0,0
16.05.2018 08:00:00 6,0 4,3 4 2 10 5 E 20 0 -
16.05.2018 07:00:00 6,0 4,3 4 2 9 5 ESE 19 0 0,0
16.05.2018 06:00:00 6,5 4,6 5 3 9 5 SSE 19 0 0,0
16.05.2018 05:00:00 7,8 5,3 6 3 10 5 SE 19 0 0,0
16.05.2018 04:00:00 8,6 5,1 6 3 10 5 SSE 20 0 0,0
16.05.2018 03:00:00 8,9 5,1 6 3 10 6 SSE 20 0 0,0
16.05.2018 02:00:00 9,9 5,3 6 4 10 5 ESE 20 0 -
16.05.2018 01:00:00 11,2 5,5 6 4 12 7 ESE 20 0 0,0
16.05.2018 00:00:00 12,4 5,6 9 5 21 11 SSE 20 0 0,0
15.05.2018 23:00:00 13,3 5,1 12 7 23 12 SSE 20 0 0,0
15.05.2018 22:00:00 14,8 5,0 13 7 25 14 SSE 20 8 0,0
15.05.2018 21:00:00 17,0 5,0 12 6 34 18 SE 20 11 0,0
15.05.2018 20:00:00 19,6 4,5 20 11 33 18 SE 20 48 -
15.05.2018 19:00:00 23,6 4,5 14 8 24 13 SE 20 60 0,0
15.05.2018 18:00:00 24,5 1,3 16 8 26 14 W 20 60 0,0
15.05.2018 17:00:00 24,6 1,5 10 5 23 13 W 20 60 0,0
15.05.2018 16:00:00 23,5 1,7 7 4 21 12 N 20 60 0,0
15.05.2018 15:00:00 22,7 2,3 8 4 21 11 WNW 20 60 0,0
15.05.2018 14:00:00 21,7 3,8 9 5 21 11 N 15 60 -
15.05.2018 13:00:00 20,5 2,9 8 4 16 8 NW 20 60 0,0
15.05.2018 12:00:00 18,2 3,9 8 5 14 8 NNW 19 60 0,0
15.05.2018 11:00:00 14,7 4,6 4 2 10 6 NNW 20 60 0,0
15.05.2018 10:00:00 10,8 3,8 4 2 9 5 W 14 49 0,0
15.05.2018 09:00:00 8,2 3,8 4 2 7 4 N 20 0 0,0
15.05.2018 08:00:00 5,2 3,4 2 1 5 3 W 20 0 -
15.05.2018 07:00:00 4,9 2,7 5 3 6 4 SSE 20 0 0,0
15.05.2018 06:00:00 5,5 3,0 5 3 9 5 SSE 20 0 0,0
15.05.2018 05:00:00 6,0 2,7 6 3 7 4 SE 20 0 0,0
15.05.2018 04:00:00 7,2 1,9 4 2 10 5 SE 20 0 0,0
15.05.2018 03:00:00 9,1 2,3 7 4 11 6 S 20 0 0,0
15.05.2018 02:00:00 9,7 0,9 7 4 9 5 SE 20 0 -
15.05.2018 01:00:00 12,6 1,1 4 2 12 6 E 20 0 0,0

tt = Température de l'air
td = dewpoint
ff = Vitesse du vent
fx = gusts
dd = Direction du vent
vv = visibility
sd = Ensoleillement
rr = Quantités de précipitations

stations d'obs. à proximité